Albia, New York
Current Conditions -  °F | °C
As of 10:51 AM on Saturday 25 Oct 2014 (Local Time) from KALB Reporting Station
Scattered Clouds Scattered Clouds  
Wind Chill: 55°   Ceiling: Unl
Heat Index: 55°   Visibility: 10mi
Dew Point: 43°   Wind: 3mph
Humidity: 64%   Direction: NA
Pressure: 29.8"   Gusts: NA
Location:  42.7478°N, 73.6049°W
Report Text: KALB 251451Z VRB03KT 10SM FEW030 SCT250 13/06 A2980 RMK AO2 SLP091 T01280061 58014 $
Loading
Personal Weather Stations






























Interactive Weather Map
Tropical Storm Tracking
New forecast layout! Learn more

10-Day Weather Forecast

Advertisements
Track Severe Weather on mobile